Terminal Aerodrome Forecast
Issued by NWS Atlanta, GA

Home | Current Version | Previous Version | Text Only | Print | Product List | Glossary On
Versions: 1 2 3 4 5 6 7 8 9 10 11 12 13 14 15 16 17 18 19 20 21 22 23 24 25 26 27 28 29 30 31 32 33 34 35 36 37 38 39
000
FTUS42 KFFC 220500
TAFAHN
TAF
KAHN 220532Z 2206/2306 00000KT 6SM BR BKN012
     FM220800 00000KT 3SM BR OVC005
     FM221400 07003KT 6SM BR SCT007 BKN012
     FM221600 07003KT P6SM VCSH SCT020 BKN035
      TEMPO 2219/2223 5SM -TSRA BR BKN020CB
     FM230000 00000KT P6SM BKN035=

USA.gov is the U.S. government's official web portal to all federal, state and local government web resources and services.